Southern Ontario METAR Reports

CYSN - St.Catharines
Updated: 06/19/2018 7:00pm
Mostly cloudy
Mostly cloudy
 Wind from ENE
Wind: ENE 7 km/h
Temperature: 22°C
Dew Point: 11°C
Humidity: 50%
Barometer: 1013.9 hPa
Clouds: Mostly cloudy
Visibility: 24 km
Cloud details: Mostly cloudy 5486 m
2018/06/19 23:00 CYSN 192300Z 06004KT 15SM BKN180 22/11 A2994 RMK AC7 SLP140 DENSITY ALT 1200FT
CYHM - Hamilton
Updated: 06/19/2018 7:00pm
Overcast
Overcast
 Wind from E
Wind: E 11 km/h
Temperature: 21°C
Dew Point: 11°C
Humidity: 53%
Barometer: 1014.6 hPa
Clouds: Overcast
Visibility: 24 km
Cloud details: Mostly cloudy 4572 m
Overcast 6706 m
2018/06/19 23:00 CYHM 192300Z 09006KT 15SM BKN150 OVC220 21/11 A2996 RMK AC7CC1 SLP145 DENSITY ALT 1600FT
 
CYYZ - Toronto
Updated: 06/19/2018 7:00pm
Mostly cloudy
Mostly cloudy
 Wind from SSE
Wind: SSE 9 km/h
Temperature: 20°C
Dew Point: 9°C
Humidity: 49%
Barometer: 1014.6 hPa
Clouds: Mostly cloudy
Visibility: 24 km
Cloud details: Few Clouds 2134 m
Mostly cloudy 5486 m
Mostly cloudy 6401 m
2018/06/19 23:00 CYYZ 192300Z 15005KT 15SM FEW070 BKN180 BKN210 20/09 A2996 RMK AC2AC4CC1 SLP146 DENSITY ALT 1300FT
CYKF - Waterloo
Updated: 06/19/2018 7:00pm
Overcast
Overcast
 Wind from ESE
Wind: ESE 13 km/h
Temperature: 22°C
Dew Point: 14°C
Humidity: 61%
Barometer: 1014.2 hPa
Clouds: Overcast
Visibility: 14 km
Cloud details: Mostly cloudy 4572 m
Overcast 5182 m
2018/06/19 23:00 CYKF 192300Z AUTO 12007KT 9SM BKN150 OVC170 22/14 A2995 RMK SLP142 DENSITY ALT 2000FT
 
CYXU - London
Updated: 06/19/2018 7:00pm
Overcast
Overcast
 Wind from SSW
Wind: SSW 15 km/h
Temperature: 22°C
Dew Point: 17°C
Humidity: 73%
Barometer: 1013.9 hPa
Clouds: Overcast
Visibility: 24 km
Cloud details: Few Clouds 914 m
Overcast 3658 m
2018/06/19 23:00 CYXU 192300Z 20008KT 15SM FEW030 OVC120 22/17 A2994 RMK SC1AC7 SLP138 DENSITY ALT 2000FT
CYQG - Windsor
Updated: 06/19/2018 7:00pm

 
2018/06/19 23:00 CYQG 192300Z CCA 09005KT 15SM OVC059 23/16 A2996 RMK SC8 SLP144 DENSITY ALT 1700FT
 
CYZR - Sarnia
Updated: 06/19/2018 7:00pm
Overcast
Overcast
 Wind from NNW
Wind: NNW 9 km/h
Temperature: 17°C
Dew Point: 15°C
Humidity: 88%
Barometer: 1014.9 hPa
Clouds: Overcast
Visibility: 14 km
Cloud details: Overcast 3048 m
2018/06/19 23:00 CYZR 192300Z AUTO 33005KT 9SM OVC100 17/15 A2997 RMK SLP150 DENSITY ALT 900FT
CYVV - Wiarton
Updated: 06/19/2018 7:00pm
Mostly cloudy
Mostly cloudy
 Wind from NNE
Wind: NNE 6 km/h
Temperature: 19°C
Dew Point: 9°C
Humidity: 52%
Barometer: 1015.2 hPa
Clouds: Mostly cloudy
Visibility: 24 km
Cloud details: Few Clouds 1524 m
Mostly cloudy 3658 m
Mostly cloudy 7620 m
2018/06/19 23:00 CYVV 192300Z 02003KT 340V060 15SM FEW050 BKN120 BKN250 19/09 A2998 RMK SC1AC4CI1 SLP153 DENSITY ALT 1300FT
 
CYPQ - Peterborough
Updated: 06/19/2018 7:00pm
Clear
Clear
 Wind from WNW
Wind: WNW 11 km/h
Temperature: 23°C
Dew Point: 11°C
Humidity: 47%
Barometer: 1013.9 hPa
Clouds: Clear
Visibility: 14 km
2018/06/19 23:00 CYPQ 192300Z AUTO 29006KT 9SM CLR 23/11 A2994 RMK SLP141 DENSITY ALT 1600FT
CYTR - Trenton
Updated: 06/19/2018 7:00pm
Mostly cloudy
Mostly cloudy
 Wind from SSW
Wind: SSW 15 km/h
Temperature: 19°C
Dew Point: 11°C
Humidity: 60%
Barometer: 1013.5 hPa
Clouds: Mostly cloudy
Visibility: 24 km
Cloud details: Mostly cloudy 3658 m
2018/06/19 23:00 CYTR 192300Z 21008KT 15SM BKN120 19/11 A2993 RMK AC5 SLP136